createdAt,value
2023-04-02T00:00:00.149Z,991.54
2023-04-02T00:05:00.263Z,991.68
2023-04-02T00:10:00.176Z,991.88
2023-04-02T00:15:00.159Z,991.86
2023-04-02T00:20:00.136Z,991.91
2023-04-02T00:25:00.149Z,991.94
2023-04-02T00:30:00.156Z,992.03
2023-04-02T00:35:00.143Z,992.15
2023-04-02T00:40:00.166Z,992.2
2023-04-02T00:45:00.119Z,992.28
2023-04-02T00:50:00.153Z,992.41
2023-04-02T00:55:00.103Z,992.47
2023-04-02T01:00:00.168Z,992.48
2023-04-02T01:05:00.170Z,992.55
2023-04-02T01:10:00.129Z,992.6
2023-04-02T01:15:00.114Z,992.6
2023-04-02T01:20:00.120Z,992.81
2023-04-02T01:25:00.151Z,992.82
2023-04-02T01:30:00.121Z,992.96
2023-04-02T01:35:00.145Z,992.95
2023-04-02T01:40:00.128Z,993.12
2023-04-02T01:45:00.175Z,993.18
2023-04-02T01:50:00.156Z,993.36
2023-04-02T01:55:00.126Z,993.44
2023-04-02T02:00:00.180Z,993.46
2023-04-02T02:05:00.119Z,993.6
2023-04-02T02:10:00.161Z,993.65
2023-04-02T02:15:00.150Z,993.77
2023-04-02T02:20:00.133Z,993.95
2023-04-02T02:25:00.163Z,993.97
2023-04-02T02:30:00.134Z,994.02
2023-04-02T02:35:00.153Z,994.16
2023-04-02T02:40:00.130Z,994.23
2023-04-02T02:45:00.151Z,994.26
2023-04-02T02:50:00.122Z,994.47
2023-04-02T02:55:00.142Z,994.5
2023-04-02T03:00:00.204Z,994.6
2023-04-02T03:05:00.138Z,994.7
2023-04-02T03:10:00.133Z,994.73
2023-04-02T03:15:00.110Z,994.8
2023-04-02T03:20:00.183Z,994.92
2023-04-02T03:25:00.158Z,995
2023-04-02T03:30:00.133Z,994.55
2023-04-02T03:35:00.133Z,994.65
2023-04-02T03:40:00.176Z,994.75
2023-04-02T03:45:00.152Z,994.9
2023-04-02T03:50:00.122Z,994.97
2023-04-02T03:55:00.139Z,995.02
2023-04-02T04:00:00.124Z,995.05
2023-04-02T04:05:00.125Z,995.22
2023-04-02T04:10:00.142Z,995.39
2023-04-02T04:15:00.129Z,995.54
2023-04-02T04:20:00.118Z,995.72
2023-04-02T04:25:00.151Z,995.86
2023-04-02T04:30:00.098Z,995.9
2023-04-02T04:35:00.093Z,996.06
2023-04-02T04:40:00.153Z,996.07
2023-04-02T04:45:00.130Z,996.35
2023-04-02T04:50:00.111Z,996.36
2023-04-02T04:55:00.123Z,996.5
2023-04-02T05:00:00.150Z,996.68
2023-04-02T05:05:00.173Z,996.81
2023-04-02T05:10:00.123Z,996.74
2023-04-02T05:15:00.106Z,996.97
2023-04-02T05:20:00.109Z,997.14
2023-04-02T05:25:00.148Z,997.24
2023-04-02T05:30:00.180Z,997.34
2023-04-02T05:35:00.107Z,997.46
2023-04-02T05:40:00.147Z,997.61
2023-04-02T05:45:00.158Z,997.68
2023-04-02T05:50:00.119Z,997.73
2023-04-02T05:55:00.130Z,997.89
2023-04-02T06:00:00.160Z,997.96
2023-04-02T06:05:00.131Z,998.08
2023-04-02T06:10:00.155Z,998.08
2023-04-02T06:15:00.104Z,998.24
2023-04-02T06:20:00.108Z,998.39
2023-04-02T06:25:00.125Z,998.43
2023-04-02T06:30:00.159Z,998.57
2023-04-02T06:35:00.105Z,998.71
2023-04-02T06:40:00.087Z,998.76
2023-04-02T06:45:00.111Z,998.86
2023-04-02T06:50:00.101Z,999
2023-04-02T06:55:00.182Z,999.09
2023-04-02T07:00:00.132Z,999.26
2023-04-02T07:05:00.232Z,999.33
2023-04-02T07:10:00.097Z,999.55
2023-04-02T07:15:00.112Z,999.65
2023-04-02T07:20:00.106Z,999.65
2023-04-02T07:25:00.119Z,999.67
2023-04-02T07:30:00.124Z,999.75
2023-04-02T07:35:00.089Z,999.91
2023-04-02T07:40:00.132Z,1000.08
2023-04-02T07:45:00.150Z,1000.15
2023-04-02T07:50:00.115Z,1000.23
2023-04-02T07:55:00.106Z,1000.2
2023-04-02T08:00:00.136Z,1000.31
2023-04-02T08:05:00.133Z,1000.39
2023-04-02T08:10:00.091Z,1000.44
2023-04-02T08:15:00.088Z,1000.63
2023-04-02T08:20:00.138Z,1000.78
2023-04-02T08:25:00.139Z,1000.86
2023-04-02T08:30:00.145Z,1000.92
2023-04-02T08:35:00.129Z,1001.01
2023-04-02T08:40:00.164Z,1001.07
2023-04-02T08:45:02.377Z,1001.14
2023-04-02T08:50:00.127Z,1001.28
2023-04-02T08:55:00.132Z,1001.36
2023-04-02T09:00:00.128Z,1001.36
2023-04-02T09:05:00.196Z,1001.47
2023-04-02T09:10:00.120Z,1001.41
2023-04-02T09:15:00.129Z,1001.48
2023-04-02T09:20:00.134Z,1001.59
2023-04-02T09:25:00.142Z,1001.67
2023-04-02T09:30:00.136Z,1001.81
2023-04-02T09:35:00.119Z,1001.87
2023-04-02T09:40:00.117Z,1001.8
2023-04-02T09:45:00.150Z,1001.9
2023-04-02T09:50:00.119Z,1002.06
2023-04-02T09:55:00.115Z,1002.13
2023-04-02T10:00:00.151Z,1002.23
2023-04-02T10:05:00.149Z,1002.32
2023-04-02T10:10:00.198Z,1002.51
2023-04-02T10:15:00.127Z,1002.6
2023-04-02T10:20:00.160Z,1002.55
2023-04-02T10:25:00.173Z,1002.69
2023-04-02T10:30:00.168Z,1002.73
2023-04-02T10:35:00.131Z,1002.7
2023-04-02T10:40:00.116Z,1002.77
2023-04-02T10:45:00.140Z,1002.89
2023-04-02T10:50:00.153Z,1003.01
2023-04-02T10:55:00.567Z,1003.1
2023-04-02T11:00:00.118Z,1003.08
2023-04-02T11:05:01.754Z,1003.1
2023-04-02T11:10:00.170Z,1003.19
2023-04-02T11:15:00.126Z,1003.22
2023-04-02T11:20:00.161Z,1003.39
2023-04-02T11:25:00.169Z,1003.54
2023-04-02T11:30:00.143Z,1003.58
2023-04-02T11:35:06.247Z,1003.46
2023-04-02T11:40:00.231Z,1003.54
2023-04-02T11:45:00.159Z,1003.64
2023-04-02T11:50:00.147Z,1003.69
2023-04-02T11:55:00.178Z,1003.79
2023-04-02T12:00:00.127Z,1003.87
2023-04-02T12:05:00.138Z,1003.92
2023-04-02T12:10:00.141Z,1003.89
2023-04-02T12:15:00.128Z,1003.94
2023-04-02T12:20:00.185Z,1003.97
2023-04-02T12:25:00.150Z,1003.97
2023-04-02T12:30:00.162Z,1004.08
2023-04-02T12:35:00.109Z,1004.01
2023-04-02T12:40:00.131Z,1004.11
2023-04-02T12:45:00.146Z,1004.23
2023-04-02T12:50:00.106Z,1004.28
2023-04-02T12:55:00.168Z,1004.25
2023-04-02T13:00:00.196Z,1004.31
2023-04-02T13:05:00.116Z,1004.32
2023-04-02T13:10:00.143Z,1004.4
2023-04-02T13:15:00.151Z,1004.4
2023-04-02T13:20:00.115Z,1004.47
2023-04-02T13:25:00.145Z,1004.53
2023-04-02T13:30:00.134Z,1004.5
2023-04-02T13:35:00.113Z,1004.55
2023-04-02T13:40:00.163Z,1004.67
2023-04-02T13:45:00.144Z,1004.71
2023-04-02T13:50:00.148Z,1004.77
2023-04-02T13:55:00.163Z,1004.79
2023-04-02T14:00:00.156Z,1004.83
2023-04-02T14:05:00.156Z,1004.88
2023-04-02T14:10:00.170Z,1004.96
2023-04-02T14:15:00.111Z,1004.93
2023-04-02T14:20:00.126Z,1005.03
2023-04-02T14:25:00.126Z,1005.07
2023-04-02T14:30:00.136Z,1005.07
2023-04-02T14:35:00.104Z,1005.01
2023-04-02T14:40:00.114Z,1005.07
2023-04-02T14:45:00.134Z,1005.04
2023-04-02T14:50:00.168Z,1005.03
2023-04-02T14:55:00.146Z,1005.04
2023-04-02T15:00:00.120Z,1005.11
2023-04-02T15:05:01.489Z,1005.22
2023-04-02T15:10:00.183Z,1005.23
2023-04-02T15:15:00.115Z,1005.34
2023-04-02T15:20:00.126Z,1005.38
2023-04-02T15:25:00.153Z,1005.4
2023-04-02T15:30:00.202Z,1005.37
2023-04-02T15:35:00.142Z,1005.48
2023-04-02T15:40:00.178Z,1005.58
2023-04-02T15:45:00.137Z,1005.6
2023-04-02T15:50:00.118Z,1005.63
2023-04-02T15:55:00.132Z,1005.74
2023-04-02T16:00:00.118Z,1005.69
2023-04-02T16:05:00.124Z,1005.78
2023-04-02T16:10:00.138Z,1005.92
2023-04-02T16:15:00.130Z,1005.83
2023-04-02T16:20:00.169Z,1006.01
2023-04-02T16:25:00.171Z,1005.89
2023-04-02T16:30:00.154Z,1006.07
2023-04-02T16:35:13.119Z,1006.05
2023-04-02T16:40:00.187Z,1006.09
2023-04-02T16:45:00.166Z,1006.19
2023-04-02T16:50:00.110Z,1006.28
2023-04-02T16:55:00.163Z,1006.37
2023-04-02T17:00:00.174Z,1006.43
2023-04-02T17:05:00.117Z,1006.49
2023-04-02T17:10:00.118Z,1006.48
2023-04-02T17:15:00.128Z,1006.58
2023-04-02T17:20:00.132Z,1006.58
2023-04-02T17:25:00.162Z,1006.63
2023-04-02T17:30:00.151Z,1006.72
2023-04-02T17:35:00.107Z,1006.76
2023-04-02T17:40:00.123Z,1006.72
2023-04-02T17:45:00.141Z,1006.86
2023-04-02T17:50:00.165Z,1006.9
2023-04-02T17:55:00.129Z,1006.9
2023-04-02T18:00:00.215Z,1006.94
2023-04-02T18:05:00.133Z,1007.05
2023-04-02T18:10:00.148Z,1007.04
2023-04-02T18:15:00.147Z,1007.06
2023-04-02T18:20:00.108Z,1007.21
2023-04-02T18:25:00.161Z,1007.29
2023-04-02T18:30:00.210Z,1007.32
2023-04-02T18:35:00.109Z,1007.45
2023-04-02T18:40:00.178Z,1007.49
2023-04-02T18:45:00.198Z,1007.44
2023-04-02T18:50:00.103Z,1007.66
2023-04-02T18:55:00.120Z,1007.72
2023-04-02T19:00:00.142Z,1007.71
2023-04-02T19:05:00.127Z,1007.9
2023-04-02T19:10:00.180Z,1007.98
2023-04-02T19:15:00.140Z,1008.14
2023-04-02T19:20:00.093Z,1008.05
2023-04-02T19:25:00.145Z,1008.17
2023-04-02T19:30:00.131Z,1008.15
2023-04-02T19:35:00.128Z,1008.24
2023-04-02T19:40:00.191Z,1008.23
2023-04-02T19:45:00.144Z,1008.33
2023-04-02T19:50:00.142Z,1008.35
2023-04-02T19:55:00.099Z,1008.35
2023-04-02T20:00:00.197Z,1008.33
2023-04-02T20:05:00.126Z,1008.43
2023-04-02T20:10:00.124Z,1008.52
2023-04-02T20:15:00.142Z,1008.54
2023-04-02T20:20:00.149Z,1008.62
2023-04-02T20:25:00.140Z,1008.65
2023-04-02T20:30:00.126Z,1009.4
2023-04-02T20:35:00.103Z,1009.37
2023-04-02T20:40:00.174Z,1009.52
2023-04-02T20:45:00.140Z,1009.6
2023-04-02T20:50:00.138Z,1009.73
2023-04-02T20:55:00.096Z,1009.71
2023-04-02T21:00:00.125Z,1009.77
2023-04-02T21:05:00.161Z,1009.77
2023-04-02T21:10:00.138Z,1009.82
2023-04-02T21:15:02.450Z,1009.91
2023-04-02T21:20:00.132Z,1010.02
2023-04-02T21:25:00.143Z,1010.01
2023-04-02T21:30:00.177Z,1010.04
2023-04-02T21:35:00.137Z,1010.16
2023-04-02T21:40:00.167Z,1010.19
2023-04-02T21:45:00.152Z,1010.18
2023-04-02T21:50:00.117Z,1010.22
2023-04-02T21:55:00.147Z,1010.23
2023-04-02T22:00:00.158Z,1010.26
2023-04-02T22:05:00.139Z,1010.31
2023-04-02T22:10:00.128Z,1010.35
2023-04-02T22:15:00.138Z,1010.49
2023-04-02T22:20:00.122Z,1010.4
2023-04-02T22:25:00.130Z,1010.46
2023-04-02T22:30:00.145Z,1010.55
2023-04-02T22:35:00.146Z,1010.44
2023-04-02T22:40:00.154Z,1010.57
2023-04-02T22:45:00.116Z,1010.53
2023-04-02T22:50:00.150Z,1010.55
2023-04-02T22:55:00.145Z,1010.61
2023-04-02T23:00:00.140Z,1010.67
2023-04-02T23:05:00.170Z,1010.74
2023-04-02T23:10:00.126Z,1010.79
2023-04-02T23:15:00.116Z,1010.86
2023-04-02T23:20:00.101Z,1010.84
2023-04-02T23:25:00.141Z,1010.86
2023-04-02T23:30:00.146Z,1010.94
2023-04-02T23:35:00.160Z,1010.95
2023-04-02T23:40:00.163Z,1010.94
2023-04-02T23:45:00.164Z,1010.95
2023-04-02T23:50:00.129Z,1010.89
2023-04-02T23:55:00.106Z,1010.9
